Figari Sud-Corse Airport

LFKF · Département de la Corse-du-Sud, Collectivité Territoriale de Corse, France

METAR anciennes LFKF · Aéroport Figari-Sud Corse

Tu vois ci-dessous les METAR des derniers jours. Sélectionne une année pour parcourir les METAR plus anciens, à partir de l'année 2007.

22 juillet 2024

Temps Code Temps Temp. Vue Base cloud Vent METAR/SPECI
13:00
V
27 °C 10 km+ 3.200 ft 240° 240° 13 kt METAR LFKF 221100Z AUTO 24013KT 9999 SCT014/// BKN032/// BKN056/// ///TCU 27/23 Q1011 TEMPO 06015G25KT 4000 TSRA FEW035CB BKN040 BKN070
13:00
V
27 °C 10 km+ 3.200 ft 240° 240° 13 kt METAR LFKF 221100Z AUTO 24013KT 9999 SCT014/// BKN032/// BKN056/// //////TCU 27/23 Q1011 TEMPO 06015G25KT 4000 TSRA FEW035CB BKN040 BKN070
12:30
V
26 °C 10 km+ 7.000 ft 240° 240° 17 kt METAR LFKF 221030Z AUTO 24017KT 9999 FEW026/// BKN070/// BKN080/// ///TCU 26/23 Q1011 TEMPO 06015G25KT 4000 TSRA FEW035CB BKN040 BKN070
12:00
V
28 °C 10 km+ - 240° 240° 17 kt METAR LFKF 221000Z AUTO 24017KT 9999 FEW076 28/22 Q1011 TEMPO 06015G25KT 4000 TSRA FEW035CB BKN040 BKN070
11:30
V
29 °C 10 km+ - 230° 230° 13 kt METAR LFKF 220930Z AUTO 23013KT CAVOK 29/22 Q1011 TEMPO 06015G25KT 4000 TSRA FEW035CB BKN040 BKN070
11:00
V
29 °C 10 km+ - 250° 250° 12 kt METAR LFKF 220900Z AUTO 25012KT CAVOK 29/22 Q1010 TEMPO 06015G25KT 4000 TSRA FEW035CB BKN040 BKN070
10:30
V
27 °C 10 km+ - 240° 240° 13 kt METAR LFKF 220830Z AUTO 24013KT 9999 FEW025 SCT110 27/21 Q1010 TEMPO 06015G25KT 4000 TSRA FEW035CB BKN040 BKN070
10:00
V
27 °C 10 km+ - 230° 230° 15 kt METAR LFKF 220800Z AUTO 23015KT 9999 FEW018 27/22 Q1010 TEMPO 06015G25KT 4000 TSRA FEW035CB BKN040 BKN070
09:30
V
27 °C 10 km+ - 210° 210° 8 kt METAR LFKF 220730Z AUTO 21008KT 160V260 9999 FEW025 27/22 Q1010 TEMPO 06015G25KT 4000 TSRA FEW035CB BKN040 BKN070
09:00
V
25 °C 10 km+ - 360° 360° 0 kt METAR LFKF 220700Z AUTO 00000KT 9999 // NSC 25/21 Q1010
08:30
V
24 °C 10 km+ - 020° 020° 3 kt METAR LFKF 220630Z AUTO 02003KT 320V110 9999 // NSC 24/22 Q1009
08:00
V
24 °C 10 km+ - 260° 260° 9 kt METAR LFKF 220600Z AUTO 26009KT 9999 // NSC 24/21 Q1009
07:30
V
23 °C 10 km+ - 240° 240° 7 kt METAR LFKF 220530Z AUTO 24007KT 210V280 9999 // NSC 23/21 Q1008
07:00
V
23 °C 10 km+ - 260° 260° 11 kt METAR LFKF 220500Z AUTO 26011KT 9999 // NSC 23/21 Q1008
06:30
V
22 °C 10 km+ 15.000 ft 270° 270° 9 kt METAR LFKF 220430Z AUTO 27009KT 9999 // FEW052 BKN150 OVC180 22/21 Q1008
06:00
V
22 °C 10 km+ 7.800 ft Var Var 3 kt METAR LFKF 220400Z AUTO VRB03KT 9999 // BKN078/// BKN130/// OVC180/// //////TCU 22/21 Q1008
05:30
V
22 °C 10 km+ - Var Var 3 kt METAR LFKF 220330Z AUTO VRB03KT 9999 // NSC 22/21 Q1008
05:00
V
22 °C 10 km+ - Var Var 4 kt METAR LFKF 220300Z AUTO VRB04KT 9999 // NSC 22/21 Q1008
04:30
V
22 °C 10 km+ - 230° 230° 6 kt METAR LFKF 220230Z AUTO 23006KT 200V340 9999 // NSC 22/21 Q1007
04:00
V
23 °C 10 km+ - 260° 260° 7 kt METAR LFKF 220200Z AUTO 26007KT 200V320 9999 // //////TCU 23/21 Q1007
03:30
V
24 °C 10 km+ - 270° 270° 6 kt METAR LFKF 220130Z AUTO 27006KT 220V320 9999 // NSC 24/21 Q1008
03:00
V
23 °C 10 km+ - 220° 220° 4 kt METAR LFKF 220100Z AUTO 22004KT 160V280 9999 // NSC 23/22 Q1008
02:30
V
23 °C 10 km+ 19.000 ft 240° 240° 4 kt METAR LFKF 220030Z AUTO 24004KT 200V280 9999 // FEW048 SCT092 BKN190 23/22 Q1008
02:00
V
22 °C 10 km+ 13.000 ft 220° 220° 4 kt METAR LFKF 220000Z AUTO 22004KT 180V280 9999 // FEW080/// SCT110/// BKN130/// ///CB 22/21 Q1009
01:30
V
23 °C 10 km+ - 280° 280° 5 kt METAR LFKF 212330Z AUTO 28005KT 9999 // //////CB 23/21 Q1009
01:00
V
23 °C 10 km+ - 340° 340° 4 kt METAR LFKF 212300Z AUTO 34004KT 240V050 9999 // ///CB 23/22 Q1009
00:30
V
22 °C 10 km+ 14.000 ft 010° 010° 5 kt METAR LFKF 212230Z AUTO 01005KT 330V060 9999 // FEW064/// OVC140/// ///CB 22/21 Q1009
00:00
I
23 °C 3,8 km 3.400 ft 180° 180° 10 kt METAR LFKF 212200Z AUTO 18010KT 150V240 3800 // SCT018/// BKN034/// BKN068/// //////CB 23/21 Q1009

21 juillet 2024

Temps Code Temps Temp. Vue Base cloud Vent METAR/SPECI
23:30
L
26 °C 1,3 km 1.700 ft 330° 330° 8 kt METAR LFKF 212130Z AUTO 33008KT 290V360 5000 1300 R23/4600D R05/2800D -TSRA BR BKN017/// OVC025/// ///CB 26/23 Q1008 TEMPO VRB20G35KT 2000 TSRA BECMG SCT030
23:00
M
28 °C 10 km+ 1.800 ft Var Var 3 kt METAR LFKF 212100Z AUTO VRB03KT 9999 TS BKN018/// BKN025/// ///CB 28/24 Q1008 BECMG NSW NSC
22:30
V
27 °C 10 km+ - 070° 070° 7 kt METAR LFKF 212030Z AUTO 07007KT 040V100 9999 FEW018/// ///CB 27/24 Q1008 BECMG NSC
22:00
V
27 °C 10 km+ - 100° 100° 7 kt METAR LFKF 212000Z AUTO 10007KT 060V170 9999 SCT017 27/24 Q1008 NOSIG
21:30
V
27 °C 10 km+ - 090° 090° 9 kt METAR LFKF 211930Z AUTO 09009KT 070V130 CAVOK 27/24 Q1007 NOSIG
21:00
V
28 °C 10 km+ - 070° 070° 12 kt METAR LFKF 211900Z AUTO 07012KT 040V110 CAVOK 28/24 Q1006 NOSIG
20:30
V
28 °C 10 km+ - 070° 070° 14 kt METAR LFKF 211830Z AUTO 07014KT 030V090 CAVOK 28/24 Q1006 NOSIG
20:00
V
29 °C 10 km+ - 070° 070° 12 kt METAR LFKF 211800Z AUTO 07012KT 030V100 CAVOK 29/23 Q1007 NOSIG
19:30
V
29 °C 10 km+ - 080° 080° 11 kt METAR LFKF 211730Z AUTO 08011KT CAVOK 29/23 Q1007 NOSIG
19:00
V
30 °C 10 km+ - 080° 080° 11 kt METAR LFKF 211700Z AUTO 08011KT 040V110 CAVOK 30/23 Q1007 TEMPO VRB15G25KT FEW040 FEW100CB BKN130
18:30
V
31 °C 10 km+ - 070° 070° 10 kt METAR LFKF 211630Z AUTO 07010KT 030V100 CAVOK 31/21 Q1007 TEMPO VRB15G25KT FEW040 FEW100CB BKN130
18:00
V
31 °C 10 km+ - 070° 070° 9 kt METAR LFKF 211600Z AUTO 07009KT 030V110 CAVOK 31/22 Q1007 TEMPO VRB15G25KT FEW040 FEW100CB BKN130
17:30
V
30 °C 10 km+ 15.000 ft 090° 090° 8 kt METAR LFKF 211530Z AUTO 09008KT 060V120 9999 FEW034/// BKN150/// BKN180/// ///CB 30/21 Q1007 TEMPO VRB15G25KT
17:00
V
30 °C 10 km+ 13.000 ft 070° 070° 8 - 19 kt METAR LFKF 211500Z AUTO 07008G19KT 040V110 9999 -RA FEW044/// SCT090/// BKN130/// //////TCU 30/22 Q1007 TEMPO FEW100CB BKN130
16:30
V
32 °C 10 km+ - 080° 080° 9 kt METAR LFKF 211430Z AUTO 08009KT 050V130 9999 ///CB 32/19 Q1008 TEMPO VRB15G25KT
16:00
V
33 °C 10 km+ - 080° 080° 12 kt METAR LFKF 211400Z AUTO 08012KT 040V120 CAVOK 33/21 Q1007 TEMPO VRB15G25KT FEW100CB BKN130
15:30
V
33 °C 10 km+ - 080° 080° 12 kt METAR LFKF 211330Z AUTO 08012KT 050V130 CAVOK 33/22 Q1007 TEMPO VRB15G25KT FEW100CB BKN130
15:00
V
32 °C 10 km+ - 080° 080° 11 kt METAR LFKF 211300Z AUTO 08011KT 050V120 CAVOK 32/23 Q1007 TEMPO VRB15G25KT FEW100CB BKN130
14:30
V
34 °C 10 km+ - 080° 080° 11 kt METAR LFKF 211230Z AUTO 08011KT 050V120 CAVOK 34/23 Q1007 TEMPO VRB15G25KT FEW100CB BKN130
14:00
V
33 °C 10 km+ - 080° 080° 9 kt METAR LFKF 211200Z AUTO 08009KT 040V150 CAVOK 33/23 Q1007 TEMPO VRB15G25KT FEW100CB BKN130
13:30
V
34 °C 10 km+ - 060° 060° 9 kt METAR LFKF 211130Z AUTO 06009KT 020V110 CAVOK 34/21 Q1007 TEMPO VRB15G25KT FEW100CB BKN130
13:00
V
35 °C 10 km+ - 060° 060° 8 kt METAR LFKF 211100Z AUTO 06008KT 010V120 CAVOK 35/20 Q1008 NOSIG
12:30
V
35 °C 10 km+ - 080° 080° 7 kt METAR LFKF 211030Z AUTO 08007KT 360V150 CAVOK 35/19 Q1008 NOSIG
12:00
V
34 °C 10 km+ - 090° 090° 8 kt METAR LFKF 211000Z AUTO 09008KT 040V120 CAVOK 34/19 Q1008 NOSIG
11:30
V
34 °C 10 km+ - 090° 090° 8 kt METAR LFKF 210930Z AUTO 09008KT 050V150 CAVOK 34/19 Q1009 NOSIG
11:00
V
33 °C 10 km+ - 070° 070° 9 kt METAR LFKF 210900Z AUTO 07009KT 030V120 CAVOK 33/18 Q1009 NOSIG
10:30
V
32 °C 10 km+ - 080° 080° 9 kt METAR LFKF 210830Z AUTO 08009KT 050V130 CAVOK 32/20 Q1009 NOSIG
10:00
V
32 °C 10 km+ - 060° 060° 11 kt METAR LFKF 210800Z AUTO 06011KT 030V090 CAVOK 32/21 Q1009 NOSIG
09:30
V
30 °C 10 km+ - 070° 070° 9 kt METAR LFKF 210730Z AUTO 07009KT CAVOK 30/21 Q1009 NOSIG
09:00
V
29 °C 10 km+ - 070° 070° 10 kt METAR LFKF 210700Z AUTO 07010KT CAVOK 29/22 Q1009 NOSIG
08:30
V
28 °C 10 km+ - 080° 080° 9 kt METAR LFKF 210630Z AUTO 08009KT 040V100 CAVOK 28/23 Q1009 NOSIG
08:00
V
27 °C 10 km+ - 080° 080° 10 kt METAR LFKF 210600Z AUTO 08010KT CAVOK 27/22 Q1009 NOSIG
07:30
V
26 °C 10 km+ - 090° 090° 9 kt METAR LFKF 210530Z AUTO 09009KT 060V120 CAVOK 26/22 Q1008 NOSIG
07:00
V
25 °C 10 km+ - 080° 080° 8 kt METAR LFKF 210500Z AUTO 08008KT 050V120 CAVOK 25/21 Q1008 NOSIG
06:30
V
24 °C 10 km+ - 080° 080° 9 kt METAR LFKF 210430Z AUTO 08009KT CAVOK 24/20 Q1008 NOSIG
06:00
V
24 °C 10 km+ - 080° 080° 9 kt METAR LFKF 210400Z AUTO 08009KT CAVOK 24/19 Q1008 NOSIG
05:30
V
24 °C 10 km+ - 070° 070° 10 kt METAR LFKF 210330Z AUTO 07010KT CAVOK 24/22 Q1008 NOSIG
05:00
V
22 °C 10 km+ - 050° 050° 6 kt METAR LFKF 210300Z AUTO 05006KT CAVOK 22/21 Q1008
04:30
V
19 °C 10 km+ - Var Var 2 kt METAR LFKF 210230Z AUTO VRB02KT CAVOK 19/18 Q1008
04:00
V
19 °C 10 km+ - 030° 030° 3 kt METAR LFKF 210200Z AUTO 03003KT CAVOK 19/18 Q1008
03:30
V
19 °C 10 km+ - 040° 040° 3 kt METAR LFKF 210130Z AUTO 04003KT 010V100 CAVOK 19/18 Q1008
03:00
V
19 °C 10 km+ - 030° 030° 4 kt METAR LFKF 210100Z AUTO 03004KT CAVOK 19/18 Q1009
02:30
V
19 °C 10 km+ - Var Var 2 kt METAR LFKF 210030Z AUTO VRB02KT CAVOK 19/18 Q1009
02:00
V
20 °C 10 km+ - Var Var 2 kt METAR LFKF 210000Z AUTO VRB02KT CAVOK 20/19 Q1009
01:30
V
20 °C 10 km+ - 050° 050° 1 kt METAR LFKF 202330Z AUTO 05001KT CAVOK 20/18 Q1010
01:00
V
21 °C 10 km+ - 020° 020° 2 kt METAR LFKF 202300Z AUTO 02002KT CAVOK 21/19 Q1010
00:30
V
22 °C 10 km+ - Var Var 1 kt METAR LFKF 202230Z AUTO VRB01KT CAVOK 22/20 Q1010
00:00
V
23 °C 10 km+ - 070° 070° 3 kt METAR LFKF 202200Z AUTO 07003KT CAVOK 23/20 Q1010

20 juillet 2024

Temps Code Temps Temp. Vue Base cloud Vent METAR/SPECI
23:30
V
23 °C 10 km+ - 080° 080° 4 kt METAR LFKF 202130Z AUTO 08004KT 050V110 CAVOK 23/19 Q1010 TEMPO 25010KT
23:00
V
23 °C 10 km+ - 100° 100° 3 kt METAR LFKF 202100Z AUTO 10003KT 070V130 CAVOK 23/19 Q1009 BECMG 25010KT
22:30
V
24 °C 10 km+ - 130° 130° 4 kt METAR LFKF 202030Z AUTO 13004KT 100V170 CAVOK 24/20 Q1009 BECMG 25010KT
22:00
V
25 °C 10 km+ - Var Var 3 kt METAR LFKF 202000Z AUTO VRB03KT CAVOK 25/20 Q1009 NOSIG
21:30
V
26 °C 10 km+ - 210° 210° 8 kt METAR LFKF 201930Z AUTO 21008KT CAVOK 26/21 Q1009 NOSIG
21:00
V
26 °C 10 km+ - 200° 200° 8 kt METAR LFKF 201900Z AUTO 20008KT 170V230 CAVOK 26/21 Q1009 NOSIG
20:30
V
27 °C 10 km+ - 200° 200° 7 kt METAR LFKF 201830Z AUTO 20007KT 170V240 CAVOK 27/21 Q1009 NOSIG
20:00
V
31 °C 10 km+ - 230° 230° 12 kt METAR LFKF 201800Z AUTO 23012KT 190V270 CAVOK 31/17 Q1009 NOSIG
19:30
V
32 °C 10 km+ - 240° 240° 14 kt METAR LFKF 201730Z AUTO 24014KT CAVOK 32/17 Q1009 NOSIG
19:00
V
32 °C 10 km+ - 240° 240° 15 kt METAR LFKF 201700Z AUTO 24015KT CAVOK 32/18 Q1009 NOSIG
18:30
V
32 °C 10 km+ - 230° 230° 16 kt METAR LFKF 201630Z AUTO 23016KT CAVOK 32/19 Q1009 NOSIG
18:00
V
33 °C 10 km+ - 240° 240° 15 kt METAR LFKF 201600Z AUTO 24015KT CAVOK 33/19 Q1009 NOSIG
17:30
V
33 °C 10 km+ - 240° 240° 16 kt METAR LFKF 201530Z AUTO 24016KT CAVOK 33/19 Q1009 NOSIG
17:00
V
33 °C 10 km+ - 240° 240° 16 kt METAR LFKF 201500Z AUTO 24016KT CAVOK 33/20 Q1009 NOSIG
16:30
V
33 °C 10 km+ - 240° 240° 17 kt METAR LFKF 201430Z AUTO 24017KT CAVOK 33/21 Q1009 NOSIG
16:00
V
33 °C 10 km+ - 240° 240° 16 kt METAR LFKF 201400Z AUTO 24016KT CAVOK 33/21 Q1009 NOSIG
15:30
V
32 °C 10 km+ - 240° 240° 20 kt METAR LFKF 201330Z AUTO 24020KT CAVOK 32/21 Q1010 BECMG 25010KT
15:00
V
32 °C 10 km+ - 250° 250° 18 kt METAR LFKF 201300Z AUTO 25018KT CAVOK 32/20 Q1010 NOSIG
14:30
V
32 °C 10 km+ - 240° 240° 19 kt METAR LFKF 201230Z AUTO 24019KT CAVOK 32/20 Q1010 NOSIG
14:00
V
31 °C 10 km+ - 230° 230° 19 kt METAR LFKF 201200Z AUTO 23019KT CAVOK 31/20 Q1010 NOSIG
13:30
V
31 °C 10 km+ - 230° 230° 19 kt METAR LFKF 201130Z AUTO 23019KT CAVOK 31/21 Q1010 NOSIG
13:00
V
31 °C 10 km+ - 220° 220° 18 kt METAR LFKF 201100Z AUTO 22018KT CAVOK 31/22 Q1010 NOSIG
12:30
V
30 °C 10 km+ - 220° 220° 17 kt METAR LFKF 201030Z AUTO 22017KT CAVOK 30/22 Q1010 NOSIG
12:00
V
30 °C 10 km+ - 210° 210° 16 kt METAR LFKF 201000Z AUTO 21016KT 180V240 CAVOK 30/22 Q1011 TEMPO 23015G25KT
11:30
V
30 °C 10 km+ - 220° 220° 15 kt METAR LFKF 200930Z AUTO 22015KT CAVOK 30/22 Q1011 TEMPO 23015G25KT
11:00
V
29 °C 10 km+ - 230° 230° 18 kt METAR LFKF 200900Z AUTO 23018KT CAVOK 29/21 Q1011 BECMG 23015G25KT
10:30
V
29 °C 10 km+ - 220° 220° 18 kt METAR LFKF 200830Z AUTO 22018KT CAVOK 29/22 Q1011 BECMG 23015G25KT
10:00
V
28 °C 10 km+ - 220° 220° 18 kt METAR LFKF 200800Z AUTO 22018KT CAVOK 28/21 Q1011 NOSIG
09:30
V
28 °C 10 km+ - 220° 220° 16 kt METAR LFKF 200730Z AUTO 22016KT CAVOK 28/21 Q1011 NOSIG
09:00
V
28 °C 10 km+ - 230° 230° 16 kt METAR LFKF 200700Z AUTO 23016KT CAVOK 28/21 Q1011 NOSIG
08:30
V
27 °C 10 km+ - 220° 220° 15 kt METAR LFKF 200630Z AUTO 22015KT CAVOK 27/20 Q1011 NOSIG
08:00
V
27 °C 10 km+ - 230° 230° 16 kt METAR LFKF 200600Z AUTO 23016KT CAVOK 27/16 Q1011 NOSIG
Signaler les modifications